Time;durP1;ratioP1;P1;durP2;ratioP2;P2;SDS_P1;SDS_P2;PMS_P1;PMS_P2;Temp;Humidity;BMP_temperature;BMP_pressure;BME280_temperature;BME280_humidity;BME280_pressure;Samples;Min_cycle;Max_cycle;Signal;HPM_P1;HPM_P2
2023/04/13 05:04:20;;;;;;;2.95;0.60;;;7.10;99.90;;;;;;3986035;26;20090;-74
2023/04/13 05:06:47;;;;;;;2.85;0.60;;;7.20;99.90;;;;;;4973600;28;20329;-73
2023/04/13 05:09:18;;;;;;;3.47;1.45;;;7.20;99.90;;;;;;4966730;28;20106;-73
2023/04/13 05:11:47;;;;;;;4.32;0.73;;;7.30;99.90;;;;;;4986653;28;20319;-71
2023/04/13 05:14:14;;;;;;;3.00;1.02;;;7.30;99.90;;;;;;4986311;28;20037;-72
2023/04/13 05:16:40;;;;;;;2.47;0.60;;;7.40;99.90;;;;;;4986945;28;20026;-73
2023/04/13 05:19:26;;;;;;;3.53;0.70;;;7.40;99.90;;;;;;4956197;29;20082;-71
2023/04/13 05:22:02;;;;;;;3.35;0.98;;;7.40;99.90;;;;;;4948979;29;20031;-72
2023/04/13 05:24:34;;;;;;;2.20;0.70;;;7.50;99.90;;;;;;4963288;29;20043;-72
2023/04/13 05:27:08;;;;;;;3.33;0.65;;;7.50;99.90;;;;;;4964116;29;20042;-73
2023/04/13 05:29:39;;;;;;;3.22;0.70;;;7.50;99.90;;;;;;4964252;29;20023;-72
2023/04/13 05:32:06;;;;;;;2.63;0.77;;;7.50;99.90;;;;;;4947923;28;20074;-73
2023/04/13 05:34:32;;;;;;;3.67;0.88;;;7.50;99.90;;;;;;4964585;29;20308;-73
2023/04/13 05:37:09;;;;;;;3.90;0.70;;;7.50;99.90;;;;;;4971624;28;20101;-73
2023/04/13 05:39:35;;;;;;;3.47;0.77;;;7.50;99.90;;;;;;4985555;28;20033;-72
2023/04/13 05:42:01;;;;;;;4.13;0.80;;;7.50;99.90;;;;;;5003513;28;20057;-73
2023/04/13 05:44:30;;;;;;;;;;;7.60;99.90;;;;;;4986081;28;20324;-72
2023/04/13 05:46:57;;;;;;;4.05;0.70;;;7.60;99.90;;;;;;4986378;28;19912;-72
2023/04/13 05:49:23;;;;;;;3.10;0.50;;;7.60;99.90;;;;;;4969709;28;20045;-73
2023/04/13 05:51:52;;;;;;;4.13;0.70;;;7.70;99.90;;;;;;4985875;28;20057;-72
2023/04/13 05:54:20;;;;;;;3.58;0.50;;;7.70;99.90;;;;;;4985426;28;20030;-71
2023/04/13 05:56:48;;;;;;;5.60;0.70;;;7.70;99.90;;;;;;4970301;28;20037;-75
2023/04/13 05:59:20;;;;;;;3.30;0.88;;;7.70;99.90;;;;;;4986000;28;20030;-73
2023/04/13 06:01:49;;;;;;;4.05;0.50;;;7.70;99.90;;;;;;4982595;28;20290;-72
2023/04/13 06:04:19;;;;;;;6.53;0.73;;;7.70;99.90;;;;;;4925803;29;20048;-74
2023/04/13 06:06:48;;;;;;;3.33;0.70;;;7.80;99.90;;;;;;4925349;29;20028;-74
2023/04/13 06:09:15;;;;;;;5.18;1.00;;;7.70;99.90;;;;;;4925143;29;20038;-74
2023/04/13 06:11:43;;;;;;;4.22;0.82;;;7.80;99.90;;;;;;4926860;29;20025;-73
2023/04/13 06:14:09;;;;;;;4.78;0.60;;;7.80;99.90;;;;;;4926347;29;20060;-72
2023/04/13 06:16:35;;;;;;;5.13;0.80;;;7.90;99.90;;;;;;4925493;29;20040;-74
2023/04/13 06:19:02;;;;;;;4.47;0.55;;;8.00;99.90;;;;;;4926003;29;20040;-75
2023/04/13 06:21:29;;;;;;;2.55;0.70;;;8.00;99.90;;;;;;4924343;29;20043;-72
2023/04/13 06:24:08;;;;;;;4.63;0.60;;;8.10;99.90;;;;;;4926832;29;20093;-72
2023/04/13 06:26:36;;;;;;;3.25;0.50;;;8.00;99.90;;;;;;4924263;29;20404;-72
2023/04/13 06:29:02;;;;;;;3.35;0.60;;;7.90;99.90;;;;;;4925092;29;20036;-73
2023/04/13 06:31:33;;;;;;;4.78;0.80;;;7.80;99.90;;;;;;4940344;29;20028;-75
2023/04/13 06:34:03;;;;;;;4.93;0.57;;;7.80;99.90;;;;;;4925097;29;20116;-72
2023/04/13 06:36:33;;;;;;;3.15;0.70;;;7.70;99.90;;;;;;4945625;29;20030;-73
2023/04/13 06:39:03;;;;;;;2.83;0.60;;;7.70;99.90;;;;;;4962934;29;20113;-72
2023/04/13 06:41:31;;;;;;;3.97;1.30;;;7.70;99.90;;;;;;4962192;29;20321;-73
2023/04/13 06:44:15;;;;;;;2.78;0.85;;;7.80;99.90;;;;;;4963182;28;20049;-74
2023/04/13 06:46:53;;;;;;;2.50;0.80;;;8.00;99.90;;;;;;4965421;29;20031;-72
2023/04/13 06:49:20;;;;;;;2.45;0.45;;;8.10;99.90;;;;;;4950105;29;20041;-72
2023/04/13 06:51:45;;;;;;;3.63;0.70;;;8.20;99.90;;;;;;4966531;29;20051;-71
2023/04/13 06:54:14;;;;;;;4.72;0.60;;;8.40;99.90;;;;;;4966734;29;20037;-72
2023/04/13 06:56:47;;;;;;;4.50;1.00;;;8.60;99.90;;;;;;4950699;29;20029;-72
2023/04/13 06:59:13;;;;;;;5.63;0.68;;;8.70;99.90;;;;;;4950918;29;20029;-73
2023/04/13 07:01:39;;;;;;;4.95;0.95;;;8.90;99.90;;;;;;4967486;28;20054;-72
2023/04/13 07:04:06;;;;;;;4.78;1.10;;;9.20;99.50;;;;;;4911364;29;20275;-73
2023/04/13 07:06:33;;;;;;;3.10;0.60;;;9.40;98.40;;;;;;4893330;29;20069;-73
2023/04/13 07:09:01;;;;;;;3.88;0.60;;;9.30;98.10;;;;;;4893728;29;20029;-73
2023/04/13 07:11:30;;;;;;;;;;;9.30;98.00;;;;;;4893696;29;20032;-71
2023/04/13 07:13:56;;;;;;;4.18;0.70;;;9.30;98.10;;;;;;4893804;29;19908;-72
2023/04/13 07:16:29;;;;;;;4.30;0.85;;;9.20;98.10;;;;;;4892841;29;20035;-73
2023/04/13 07:18:55;;;;;;;4.47;0.68;;;9.20;97.90;;;;;;4893406;29;20034;-73
2023/04/13 07:21:22;;;;;;;2.58;0.68;;;9.00;98.20;;;;;;4893121;29;20078;-72
2023/04/13 07:23:58;;;;;;;5.10;0.70;;;9.10;98.40;;;;;;4893212;29;20037;-71
2023/04/13 07:26:25;;;;;;;4.38;0.70;;;9.00;98.10;;;;;;4892774;29;20051;-73
2023/04/13 07:28:52;;;;;;;3.15;0.80;;;9.10;98.00;;;;;;4893045;29;20056;-71
2023/04/13 07:31:21;;;;;;;5.32;0.70;;;9.20;98.40;;;;;;4878127;29;20024;-71
2023/04/13 07:33:49;;;;;;;3.72;0.63;;;9.30;97.80;;;;;;4909898;29;20028;-72
2023/04/13 07:36:22;;;;;;;4.72;0.80;;;9.30;97.30;;;;;;4892424;29;20028;-73
2023/04/13 07:38:51;;;;;;;4.10;1.00;;;9.20;97.80;;;;;;4892933;29;20052;-72
2023/04/13 07:41:21;;;;;;;4.15;0.70;;;9.10;97.90;;;;;;4877975;29;20290;-71
2023/04/13 07:43:50;;;;;;;4.43;0.90;;;9.10;98.10;;;;;;4892758;29;20055;-73
2023/04/13 07:46:17;;;;;;;7.05;0.82;;;9.20;97.70;;;;;;4892872;29;20091;-71
2023/04/13 07:48:43;;;;;;;3.53;0.60;;;9.40;97.50;;;;;;4876890;29;20020;-73
2023/04/13 07:51:19;;;;;;;3.22;0.47;;;9.70;97.20;;;;;;4892923;29;20033;-74
2023/04/13 07:53:46;;;;;;;3.70;0.70;;;9.60;97.10;;;;;;4892507;29;20191;-73
2023/04/13 07:56:13;;;;;;;4.50;0.77;;;9.80;96.90;;;;;;4892589;29;20032;-71
2023/04/13 07:58:39;;;;;;;5.32;0.73;;;9.70;97.00;;;;;;4892078;29;20036;-74
2023/04/13 08:01:06;;;;;;;2.13;0.77;;;9.50;97.00;;;;;;4877297;29;20219;-71
2023/04/13 08:03:35;;;;;;;3.53;0.95;;;9.50;98.50;;;;;;4889268;29;20043;-72
2023/04/13 08:06:15;;;;;;;3.45;0.77;;;9.60;98.40;;;;;;4927150;29;20051;-72
2023/04/13 08:08:44;;;;;;;7.55;0.70;;;9.70;98.00;;;;;;4926461;29;20314;-72
2023/04/13 08:11:09;;;;;;;5.85;0.60;;;9.70;97.60;;;;;;4910984;29;20028;-73
2023/04/13 08:13:36;;;;;;;5.45;0.57;;;10.00;97.00;;;;;;4926274;29;20330;-75
2023/04/13 08:16:02;;;;;;;3.85;0.82;;;9.80;96.80;;;;;;4926853;29;20028;-71
2023/04/13 08:18:31;;;;;;;2.78;0.80;;;9.90;97.50;;;;;;4926242;29;20024;-73
2023/04/13 08:20:57;;;;;;;;;;;10.10;96.70;;;;;;4896240;29;20048;-72
2023/04/13 08:23:26;;;;;;;4.05;0.82;;;10.40;96.50;;;;;;4926521;29;19903;-73
2023/04/13 08:25:52;;;;;;;4.90;0.90;;;10.50;96.30;;;;;;4927739;29;20046;-72
2023/04/13 08:28:19;;;;;;;4.80;1.02;;;10.60;95.30;;;;;;4927765;29;20040;-72
2023/04/13 08:30:47;;;;;;;5.30;0.90;;;10.50;95.40;;;;;;4926118;29;20055;-73
2023/04/13 08:33:14;;;;;;;4.28;0.68;;;10.50;95.20;;;;;;4926682;29;20326;-72
2023/04/13 08:35:41;;;;;;;6.47;1.35;;;10.50;95.20;;;;;;4925970;29;20036;-72
2023/04/13 08:38:12;;;;;;;6.35;1.10;;;10.80;94.90;;;;;;4911493;29;20095;-74
2023/04/13 08:40:45;;;;;;;3.72;0.80;;;11.10;94.80;;;;;;4926229;29;20039;-71
2023/04/13 08:43:17;;;;;;;6.13;1.00;;;11.10;94.30;;;;;;4926250;29;20028;-71
2023/04/13 08:45:43;;;;;;;3.70;0.80;;;10.90;94.10;;;;;;4910043;29;20055;-73
2023/04/13 08:48:12;;;;;;;4.93;0.85;;;10.90;93.50;;;;;;4910499;29;20325;-73
2023/04/13 08:50:42;;;;;;;5.50;0.70;;;11.00;94.20;;;;;;4910225;29;20317;-72
2023/04/13 08:53:13;;;;;;;4.35;0.75;;;11.10;93.70;;;;;;4910365;29;20036;-73
2023/04/13 08:55:46;;;;;;;4.53;0.73;;;10.80;94.20;;;;;;4925428;29;20039;-73
2023/04/13 08:58:23;;;;;;;6.07;1.13;;;10.40;94.80;;;;;;4926299;29;20309;-72
2023/04/13 09:00:49;;;;;;;3.85;0.70;;;10.30;95.70;;;;;;4909674;29;20384;-73
2023/04/13 09:03:23;;;;;;;4.00;0.90;;;10.30;95.50;;;;;;4942329;29;20349;-72
2023/04/13 09:06:01;;;;;;;4.93;0.90;;;10.30;96.30;;;;;;4928704;29;20098;-73
2023/04/13 09:08:34;;;;;;;6.07;0.70;;;10.30;96.10;;;;;;4944034;29;20024;-72
2023/04/13 09:11:02;;;;;;;5.18;0.98;;;10.30;95.80;;;;;;4929307;29;20042;-72
2023/04/13 09:13:31;;;;;;;3.63;0.93;;;10.50;95.90;;;;;;4944468;29;20035;-72
2023/04/13 09:15:57;;;;;;;3.65;0.73;;;10.60;95.50;;;;;;4944620;29;20032;-73
2023/04/13 09:18:28;;;;;;;3.83;0.90;;;10.70;94.70;;;;;;4944052;29;20051;-74
2023/04/13 09:21:00;;;;;;;3.65;0.82;;;11.00;93.50;;;;;;4944939;29;20031;-71
2023/04/13 09:23:29;;;;;;;5.20;0.95;;;11.20;93.50;;;;;;4928883;29;20115;-71
2023/04/13 09:26:08;;;;;;;4.93;0.85;;;11.30;92.90;;;;;;4944899;29;20323;-72
2023/04/13 09:28:46;;;;;;;5.15;0.85;;;11.30;93.00;;;;;;4944287;29;20054;-75
2023/04/13 09:31:12;;;;;;;3.75;0.77;;;11.60;93.20;;;;;;4928958;29;20039;-73
2023/04/13 09:33:46;;;;;;;3.92;0.85;;;12.00;92.70;;;;;;4944267;29;20096;-73
2023/04/13 09:36:13;;;;;;;4.05;1.02;;;12.10;91.40;;;;;;4928789;29;20381;-73
2023/04/13 09:38:39;;;;;;;5.60;1.05;;;12.00;92.00;;;;;;4928138;29;20099;-71
2023/04/13 09:41:06;;;;;;;3.92;1.13;;;12.10;91.60;;;;;;4944284;29;20079;-72
2023/04/13 09:43:37;;;;;;;5.18;0.80;;;12.30;91.70;;;;;;4943723;29;20040;-72
2023/04/13 09:46:17;;;;;;;5.50;0.82;;;12.50;91.10;;;;;;4944217;29;20042;-74
2023/04/13 09:48:43;;;;;;;4.88;0.70;;;12.50;89.90;;;;;;4943547;29;20361;-74
2023/04/13 09:51:12;;;;;;;4.32;1.05;;;12.10;90.00;;;;;;4944418;29;20131;-73
2023/04/13 09:53:41;;;;;;;6.82;0.90;;;11.60;90.80;;;;;;4944823;29;20031;-72
2023/04/13 09:56:13;;;;;;;4.47;0.85;;;11.60;91.00;;;;;;4945260;29;20036;-73
2023/04/13 09:58:44;;;;;;;4.10;0.77;;;11.40;91.40;;;;;;4944811;29;20055;-72
2023/04/13 10:01:10;;;;;;;2.85;0.60;;;11.00;91.70;;;;;;4945202;29;20095;-73
2023/04/13 10:03:37;;;;;;;5.07;0.80;;;11.00;91.20;;;;;;4943227;29;20118;-73
2023/04/13 10:06:07;;;;;;;3.67;0.70;;;11.10;91.30;;;;;;4945420;29;20047;-74
2023/04/13 10:08:36;;;;;;;6.82;0.50;;;11.20;91.10;;;;;;4944629;29;20072;-74
2023/04/13 10:11:03;;;;;;;4.70;1.08;;;11.30;90.40;;;;;;4945277;29;20375;-73
2023/04/13 10:13:36;;;;;;;3.33;0.90;;;11.50;90.00;;;;;;4928340;29;20075;-73
2023/04/13 10:16:26;;;;;;;4.97;1.40;;;11.60;90.00;;;;;;4928752;29;20321;-72
2023/04/13 10:19:01;;;;;;;3.55;1.02;;;11.70;89.00;;;;;;4945083;29;20054;-71
2023/04/13 10:21:44;;;;;;;4.88;1.10;;;11.80;88.10;;;;;;4949121;29;20110;-72
2023/04/13 10:24:14;;;;;;;4.03;1.00;;;11.90;88.00;;;;;;4947864;29;20039;-72
2023/04/13 10:26:44;;;;;;;2.63;0.75;;;11.70;87.20;;;;;;4948477;29;20310;-73
2023/04/13 10:29:13;;;;;;;5.82;0.88;;;11.90;87.00;;;;;;4947852;29;20027;-73
2023/04/13 10:31:46;;;;;;;3.95;0.95;;;12.10;86.90;;;;;;4947132;29;20027;-73
2023/04/13 10:34:34;;;;;;;4.78;0.80;;;12.10;86.30;;;;;;4949065;29;20380;-73
2023/04/13 10:37:15;;;;;;;6.13;1.17;;;12.10;86.60;;;;;;4947961;29;20099;-73
2023/04/13 10:39:40;;;;;;;5.53;0.98;;;12.00;86.20;;;;;;4947256;29;20135;-72
2023/04/13 10:42:11;;;;;;;4.80;1.30;;;12.20;86.90;;;;;;4948825;29;20028;-72
2023/04/13 10:44:41;;;;;;;5.57;0.93;;;12.30;87.70;;;;;;4947306;29;20368;-73
2023/04/13 10:47:08;;;;;;;5.05;1.25;;;12.10;86.00;;;;;;4948712;29;20110;-72
2023/04/13 10:49:35;;;;;;;7.13;0.85;;;12.00;86.50;;;;;;4947986;29;20047;-75
2023/04/13 10:52:03;;;;;;;6.75;1.27;;;11.90;87.10;;;;;;4948590;29;20083;-71
2023/04/13 10:54:30;;;;;;;;;;;11.80;87.20;;;;;;4949066;29;20046;-72
2023/04/13 10:57:01;;;;;;;5.13;1.30;;;11.60;88.60;;;;;;4948006;29;19907;-74
2023/04/13 10:59:56;;;;;;;5.72;1.00;;;11.70;88.30;;;;;;4931659;29;20031;-72
2023/04/13 11:02:31;;;;;;;5.93;1.65;;;11.70;88.40;;;;;;4931382;29;20028;-72
2023/04/13 11:04:58;;;;;;;4.72;1.00;;;11.90;90.10;;;;;;4930431;29;20202;-72
2023/04/13 11:07:27;;;;;;;5.68;1.08;;;12.10;87.40;;;;;;4915564;29;20023;-73
2023/04/13 11:10:00;;;;;;;4.53;0.77;;;12.20;87.80;;;;;;4930686;29;20416;-73
2023/04/13 11:12:26;;;;;;;3.40;1.02;;;12.00;86.60;;;;;;4948121;29;20044;-73
2023/04/13 11:14:51;;;;;;;4.00;0.93;;;11.90;86.60;;;;;;4947571;29;20062;-72
2023/04/13 11:17:19;;;;;;;4.93;1.00;;;11.80;87.30;;;;;;4948059;29;20035;-71
2023/04/13 11:19:47;;;;;;;4.45;0.95;;;11.90;87.30;;;;;;4930598;29;20028;-73
2023/04/13 11:22:17;;;;;;;5.22;1.13;;;12.00;86.40;;;;;;4948086;29;20047;-73
2023/04/13 11:24:44;;;;;;;4.38;0.90;;;12.00;86.20;;;;;;4946417;29;20035;-72
2023/04/13 11:27:22;;;;;;;4.82;0.90;;;12.10;86.30;;;;;;4931023;29;20023;-73
2023/04/13 11:30:05;;;;;;;4.87;0.90;;;12.40;85.90;;;;;;4930254;29;20305;-74
2023/04/13 11:32:38;;;;;;;4.75;0.90;;;12.50;85.30;;;;;;4947718;29;20503;-73
2023/04/13 11:35:13;;;;;;;5.30;1.08;;;12.50;85.20;;;;;;4948052;29;20314;-73
2023/04/13 11:37:51;;;;;;;5.68;1.00;;;12.20;87.10;;;;;;4947392;29;20055;-73
2023/04/13 11:40:24;;;;;;;7.50;1.30;;;11.90;92.30;;;;;;4948084;29;20310;-74
2023/04/13 11:42:55;;;;;;;5.22;1.15;;;10.80;97.50;;;;;;4945989;29;20039;-73
2023/04/13 11:45:29;;;;;;;5.05;0.90;;;9.80;99.90;;;;;;4947592;29;20044;-74
2023/04/13 11:48:04;;;;;;;4.43;1.58;;;9.20;99.90;;;;;;4930503;29;20311;-73
2023/04/13 11:50:33;;;;;;;7.13;1.45;;;8.70;99.90;;;;;;4931091;29;20352;-74
2023/04/13 11:53:00;;;;;;;6.35;1.48;;;8.50;99.90;;;;;;4947033;29;20031;-73
2023/04/13 11:55:27;;;;;;;6.57;1.10;;;8.60;99.90;;;;;;4930515;29;20038;-74
2023/04/13 11:57:56;;;;;;;5.45;1.05;;;8.80;99.90;;;;;;4945866;29;20031;-74
2023/04/13 12:00:29;;;;;;;6.30;1.30;;;9.20;99.90;;;;;;4930728;29;20051;-74
2023/04/13 12:02:57;;;;;;;4.82;0.90;;;10.20;99.90;;;;;;4949671;29;20086;-74
2023/04/13 12:05:25;;;;;;;4.53;1.17;;;11.80;99.90;;;;;;4953614;29;20115;-74
2023/04/13 12:07:53;;;;;;;8.20;1.58;;;12.60;99.90;;;;;;4932970;29;20333;-74
2023/04/13 12:10:27;;;;;;;4.05;1.05;;;12.90;99.90;;;;;;4966563;29;20023;-73
2023/04/13 12:13:00;;;;;;;3.17;0.60;;;13.00;99.90;;;;;;4949053;29;20031;-73
2023/04/13 12:15:28;;;;;;;4.57;0.93;;;12.80;98.20;;;;;;4966497;29;20035;-73
2023/04/13 12:17:56;;;;;;;3.42;0.90;;;13.00;97.20;;;;;;4948947;29;20030;-73
2023/04/13 12:20:24;;;;;;;4.57;0.77;;;13.60;97.80;;;;;;4949309;29;20031;-73
2023/04/13 12:22:52;;;;;;;2.40;0.52;;;14.30;96.30;;;;;;4966067;29;20098;-72
2023/04/13 12:25:20;;;;;;;3.97;0.73;;;14.10;95.80;;;;;;4933330;29;20086;-73
2023/04/13 12:27:50;;;;;;;4.93;0.80;;;13.90;95.60;;;;;;4965625;29;20035;-74
2023/04/13 12:30:18;;;;;;;4.28;0.90;;;13.50;96.40;;;;;;4949375;29;20374;-74
2023/04/13 12:32:54;;;;;;;4.65;0.80;;;13.20;97.40;;;;;;4965613;29;20142;-72
2023/04/13 12:35:23;;;;;;;7.45;1.52;;;12.90;97.60;;;;;;4966047;29;20090;-72
2023/04/13 12:37:51;;;;;;;5.10;0.75;;;12.50;98.10;;;;;;4965338;29;20066;-72
2023/04/13 12:40:18;;;;;;;3.72;0.65;;;12.50;99.10;;;;;;4933291;29;20069;-72
2023/04/13 12:43:08;;;;;;;3.38;0.60;;;12.40;98.50;;;;;;4951363;29;20374;-73
2023/04/13 12:45:37;;;;;;;3.92;0.88;;;12.20;98.80;;;;;;4948101;29;20063;-73
2023/04/13 12:48:11;;;;;;;3.70;0.68;;;12.00;99.20;;;;;;4948227;29;20312;-73
2023/04/13 12:50:43;;;;;;;4.03;0.70;;;11.90;99.90;;;;;;4965648;29;20320;-74
2023/04/13 12:53:33;;;;;;;6.88;1.15;;;11.90;99.90;;;;;;4948248;29;20031;-71
2023/04/13 12:55:59;;;;;;;3.05;0.70;;;11.80;99.90;;;;;;4964724;29;20102;-71
2023/04/13 12:58:28;;;;;;;4.07;1.02;;;11.60;99.90;;;;;;4965730;29;20101;-70
2023/04/13 13:00:57;;;;;;;4.28;1.25;;;11.40;99.90;;;;;;4948608;28;20034;-74
2023/04/13 13:03:26;;;;;;;5.90;1.55;;;11.10;99.90;;;;;;4965042;29;20122;-73
2023/04/13 13:05:51;;;;;;;5.45;1.20;;;11.00;99.90;;;;;;4964781;29;20150;-74
2023/04/13 13:08:23;;;;;;;3.20;1.00;;;11.00;99.90;;;;;;4965478;29;20038;-72
2023/04/13 13:10:48;;;;;;;4.93;1.10;;;11.00;99.90;;;;;;4932009;29;20035;-72
2023/04/13 13:13:16;;;;;;;5.43;1.20;;;11.20;99.90;;;;;;4947963;29;20020;-72
2023/04/13 13:15:41;;;;;;;4.38;1.73;;;11.40;99.90;;;;;;4964720;29;20062;-73
2023/04/13 13:18:09;;;;;;;3.97;1.08;;;11.50;99.90;;;;;;4965177;29;20031;-73
2023/04/13 13:20:39;;;;;;;3.93;1.60;;;11.60;99.90;;;;;;4965175;29;20043;-72
2023/04/13 13:23:08;;;;;;;6.03;1.90;;;11.80;99.90;;;;;;4964614;29;20438;-72
2023/04/13 13:25:35;;;;;;;7.15;2.53;;;12.10;99.90;;;;;;4948049;29;20031;-72
2023/04/13 13:28:07;;;;;;;5.65;2.90;;;12.20;99.90;;;;;;4947351;29;20067;-72
2023/04/13 13:30:37;;;;;;;5.40;2.58;;;12.00;98.90;;;;;;4932319;29;20027;-72
2023/04/13 13:33:04;;;;;;;6.78;2.50;;;12.10;98.90;;;;;;4931549;29;20031;-72
2023/04/13 13:35:32;;;;;;;6.28;2.72;;;12.10;98.90;;;;;;4964921;29;20119;-73
2023/04/13 13:38:00;;;;;;;5.20;2.50;;;12.10;97.40;;;;;;4947233;29;20059;-72
2023/04/13 13:40:26;;;;;;;2.38;0.80;;;12.40;99.80;;;;;;4964855;29;20053;-73
2023/04/13 13:42:53;;;;;;;2.80;0.50;;;13.10;97.00;;;;;;4931288;29;20241;-73
2023/04/13 13:45:22;;;;;;;2.92;0.98;;;13.50;93.60;;;;;;4947499;29;20034;-72
2023/04/13 13:47:53;;;;;;;2.75;0.90;;;13.90;91.70;;;;;;4946919;29;20050;-74
2023/04/13 13:50:22;;;;;;;2.47;0.85;;;14.00;92.30;;;;;;4947439;29;20046;-73
2023/04/13 13:52:50;;;;;;;2.75;0.90;;;14.00;93.30;;;;;;4946703;28;20023;-74
2023/04/13 13:55:19;;;;;;;2.85;1.10;;;13.50;93.20;;;;;;4931588;29;20321;-73
2023/04/13 13:57:49;;;;;;;5.38;1.27;;;13.30;93.70;;;;;;4946972;29;20038;-72
2023/04/13 14:00:16;;;;;;;3.38;0.70;;;13.10;94.20;;;;;;4947664;29;20110;-71
2023/04/13 14:02:46;;;;;;;2.80;0.70;;;13.20;94.00;;;;;;4964051;28;20095;-74
2023/04/13 14:05:12;;;;;;;3.65;1.00;;;13.20;94.60;;;;;;4947214;29;20035;-74
2023/04/13 14:07:45;;;;;;;2.58;0.70;;;13.80;94.40;;;;;;4947375;29;20023;-74
2023/04/13 14:10:13;;;;;;;2.75;0.70;;;13.90;93.20;;;;;;4964645;29;20058;-74
2023/04/13 14:12:59;;;;;;;2.65;0.80;;;14.20;93.10;;;;;;4963787;29;20039;-73
2023/04/13 14:15:27;;;;;;;2.08;0.52;;;14.30;92.00;;;;;;4930404;29;20166;-71
2023/04/13 14:17:52;;;;;;;2.25;0.70;;;14.30;92.70;;;;;;4963980;29;20297;-71
2023/04/13 14:20:18;;;;;;;2.80;0.80;;;14.40;92.40;;;;;;4964164;29;20058;-73
2023/04/13 14:22:48;;;;;;;2.13;0.60;;;14.10;92.20;;;;;;4929916;29;20039;-72
2023/04/13 14:25:14;;;;;;;4.03;0.95;;;13.70;92.70;;;;;;4964146;29;20039;-72
2023/04/13 14:27:40;;;;;;;2.45;0.60;;;13.60;93.70;;;;;;4947427;29;20027;-73
2023/04/13 14:30:17;;;;;;;2.80;0.70;;;13.70;93.40;;;;;;4948535;29;20328;-74
2023/04/13 14:32:45;;;;;;;2.97;0.63;;;14.00;92.30;;;;;;4964148;29;20154;-73
2023/04/13 14:35:39;;;;;;;1.45;0.40;;;13.90;91.70;;;;;;4950713;29;20062;-72
2023/04/13 14:38:10;;;;;;;2.25;0.77;;;13.70;92.20;;;;;;4930618;29;20027;-72
2023/04/13 14:40:40;;;;;;;1.92;0.60;;;13.60;93.60;;;;;;4947154;29;20050;-74
2023/04/13 14:43:09;;;;;;;4.70;1.25;;;13.30;93.80;;;;;;4963237;29;20042;-73
2023/04/13 14:45:37;;;;;;;2.75;0.80;;;12.70;94.90;;;;;;4946056;29;20107;-74
2023/04/13 14:48:06;;;;;;;;;;;12.20;95.90;;;;;;4963987;29;20030;-72
2023/04/13 14:50:44;;;;;;;3.70;0.80;;;12.00;96.80;;;;;;4964036;29;20196;-73
2023/04/13 14:53:09;;;;;;;2.65;0.70;;;11.80;97.40;;;;;;4930775;29;20051;-72
2023/04/13 14:55:38;;;;;;;3.17;0.80;;;11.60;97.90;;;;;;4964059;29;20317;-72
2023/04/13 14:58:29;;;;;;;4.07;0.90;;;11.40;98.30;;;;;;4950322;29;20378;-73
2023/04/13 15:00:58;;;;;;;2.45;0.70;;;11.10;99.50;;;;;;4963380;28;20023;-73
2023/04/13 15:03:23;;;;;;;3.70;0.95;;;10.90;99.90;;;;;;4963879;29;20094;-72
2023/04/13 15:08:41;;;;;;;3.08;0.88;;;11.00;99.90;;;;;;4855653;29;20033;-72
2023/04/13 15:14:36;;;;;;;5.35;0.98;;;10.80;99.90;;;;;;4869751;29;20040;-72
2023/04/13 15:17:03;;;;;;;3.65;0.80;;;10.60;99.90;;;;;;4870466;29;20094;-71
2023/04/13 15:19:50;;;;;;;2.70;0.77;;;10.60;99.90;;;;;;4871108;29;20117;-74
2023/04/13 15:22:16;;;;;;;1.83;0.65;;;10.50;99.90;;;;;;4870925;29;20056;-72
2023/04/13 15:24:48;;;;;;;4.30;0.70;;;10.30;99.90;;;;;;4871048;29;20026;-74
2023/04/13 15:27:30;;;;;;;2.75;0.70;;;10.20;99.90;;;;;;4855389;29;20100;-75
2023/04/13 15:30:22;;;;;;;3.80;0.75;;;10.00;99.90;;;;;;4854676;29;20112;-72
2023/04/13 15:33:09;;;;;;;5.55;0.70;;;9.90;99.90;;;;;;4833851;29;20051;-73
2023/04/13 15:35:36;;;;;;;3.55;0.80;;;9.90;99.90;;;;;;4870497;29;20057;-73
2023/04/13 15:38:03;;;;;;;5.13;0.80;;;9.70;99.90;;;;;;4869859;29;20033;-75
2023/04/13 15:40:33;;;;;;;2.63;0.70;;;9.60;99.90;;;;;;4870718;29;20049;-74
2023/04/13 15:43:00;;;;;;;6.25;1.38;;;9.60;99.90;;;;;;4870058;29;20033;-74
2023/04/13 15:45:29;;;;;;;5.72;1.00;;;9.50;99.90;;;;;;4902501;29;20050;-74
2023/04/13 15:47:55;;;;;;;5.18;1.05;;;9.50;99.90;;;;;;4949197;29;20113;-74
2023/04/13 15:50:23;;;;;;;5.40;1.00;;;9.50;99.90;;;;;;4950064;29;20050;-75
2023/04/13 15:52:53;;;;;;;5.60;1.15;;;9.40;99.90;;;;;;4934175;29;20045;-74
2023/04/13 15:55:21;;;;;;;3.95;1.23;;;9.40;99.90;;;;;;4966923;29;20038;-74
2023/04/13 15:58:05;;;;;;;5.07;1.10;;;9.30;99.90;;;;;;4966619;29;20031;-74
2023/04/13 16:00:32;;;;;;;4.90;1.40;;;9.20;99.90;;;;;;4934225;29;20035;-75
2023/04/13 16:03:10;;;;;;;4.40;1.05;;;9.40;99.90;;;;;;4958344;28;20059;-73
2023/04/13 16:06:02;;;;;;;5.07;1.02;;;9.70;99.90;;;;;;4896123;29;20083;-74
2023/04/13 16:08:45;;;;;;;4.75;1.50;;;10.20;99.90;;;;;;4911984;29;20310;-75
2023/04/13 16:11:12;;;;;;;3.55;1.20;;;10.70;99.90;;;;;;4911637;29;20244;-71
2023/04/13 16:13:38;;;;;;;3.70;0.95;;;12.10;99.90;;;;;;4911406;29;20036;-72
2023/04/13 16:16:13;;;;;;;4.00;1.20;;;13.50;99.90;;;;;;4910641;29;20051;-72
2023/04/13 16:19:03;;;;;;;3.10;0.82;;;14.70;99.60;;;;;;4912313;29;20032;-73
2023/04/13 16:21:29;;;;;;;2.97;1.00;;;14.70;97.30;;;;;;4927769;29;20258;-75
2023/04/13 16:23:54;;;;;;;2.42;0.77;;;14.60;98.30;;;;;;4927472;29;20059;-73
2023/04/13 16:26:21;;;;;;;2.97;0.93;;;14.50;97.00;;;;;;4911327;29;20190;-73
2023/04/13 16:28:52;;;;;;;;;;;14.00;97.90;;;;;;4911902;29;20397;-73
2023/04/13 16:31:20;;;;;;;3.15;1.02;;;13.80;99.00;;;;;;4895241;29;20252;-73
2023/04/13 16:33:45;;;;;;;2.47;1.02;;;13.60;98.80;;;;;;4911152;29;20039;-73
2023/04/13 16:36:15;;;;;;;2.17;0.77;;;13.80;99.40;;;;;;4910384;29;20052;-74
2023/04/13 16:39:43;;;;;;;1.98;0.60;;;14.00;98.30;;;;;;4895636;29;20024;-74
2023/04/13 16:43:10;;;;;;;6.20;1.10;;;13.30;98.80;;;;;;4912430;29;20072;-72
2023/04/13 16:45:54;;;;;;;2.00;0.80;;;12.50;99.90;;;;;;4909986;29;20082;-73
2023/04/13 16:48:28;;;;;;;2.92;0.75;;;12.20;99.90;;;;;;4894891;29;20291;-73
2023/04/13 16:51:19;;;;;;;3.40;0.97;;;12.60;99.90;;;;;;4911538;29;20091;-74
2023/04/13 16:53:56;;;;;;;3.95;0.80;;;12.30;99.90;;;;;;4910548;29;20103;-73
2023/04/13 16:56:54;;;;;;;1.95;0.65;;;12.00;99.90;;;;;;4927891;29;20096;-73
2023/04/13 16:59:29;;;;;;;;;;;11.70;99.90;;;;;;4895746;29;20036;-74
2023/04/13 17:06:00;;;;;;;4.45;0.90;;;11.20;99.90;;;;;;4943250;29;20115;-74
2023/04/13 17:16:50;;;;;;;2.75;0.85;;;10.50;99.90;;;;;;4906780;29;20031;-72
2023/04/13 17:19:41;;;;;;;2.50;0.90;;;10.20;99.90;;;;;;4894245;29;20099;-74
2023/04/13 17:22:07;;;;;;;3.53;0.90;;;10.10;99.90;;;;;;4905760;29;20358;-73
2023/04/13 17:24:35;;;;;;;2.65;0.63;;;10.00;99.90;;;;;;4874966;29;20044;-74
2023/04/13 17:27:01;;;;;;;;;;;10.00;99.90;;;;;;4906423;29;20035;-72
2023/04/13 17:29:27;;;;;;;3.47;1.58;;;9.80;99.90;;;;;;4890036;29;20140;-74
2023/04/13 17:31:59;;;;;;;4.53;2.25;;;9.70;99.90;;;;;;4890724;29;20048;-73
2023/04/13 17:34:25;;;;;;;6.28;1.85;;;9.60;99.90;;;;;;4890430;29;20036;-72
2023/04/13 17:36:51;;;;;;;3.50;1.08;;;9.50;99.90;;;;;;4890405;29;20020;-72
2023/04/13 17:39:20;;;;;;;4.53;1.00;;;9.40;99.90;;;;;;4889902;29;20116;-74
2023/04/13 17:41:45;;;;;;;;;;;9.30;99.90;;;;;;4906308;29;20056;-74
2023/04/13 17:44:17;;;;;;;3.90;1.33;;;9.10;99.90;;;;;;4874354;29;19914;-74
2023/04/13 17:47:03;;;;;;;3.20;1.38;;;9.00;99.90;;;;;;4906030;29;20040;-73
2023/04/13 17:49:29;;;;;;;3.53;1.63;;;8.90;99.90;;;;;;4926704;29;20111;-74
2023/04/13 17:54:59;;;;;;;5.25;2.20;;;8.60;99.90;;;;;;4925231;29;20028;-74
2023/04/13 17:57:47;;;;;;;5.68;2.78;;;8.60;99.90;;;;;;4909412;29;20035;-73
2023/04/13 18:00:17;;;;;;;7.95;3.00;;;8.50;99.90;;;;;;4917239;29;20046;-73
2023/04/13 18:02:50;;;;;;;3.95;1.80;;;8.50;99.90;;;;;;4904339;29;20055;-74
2023/04/13 18:05:19;;;;;;;4.93;2.13;;;8.50;99.90;;;;;;4928524;29;20396;-76
2023/04/13 18:07:47;;;;;;;3.08;1.50;;;8.50;99.90;;;;;;4944129;29;20222;-76
2023/04/13 18:10:16;;;;;;;5.53;1.90;;;8.40;99.90;;;;;;4945052;29;20200;-74
2023/04/13 18:12:41;;;;;;;5.32;2.15;;;8.30;99.90;;;;;;4945282;29;20158;-75
2023/04/13 18:15:13;;;;;;;5.38;2.30;;;8.30;99.90;;;;;;4943906;29;20027;-75
2023/04/13 18:18:03;;;;;;;9.10;2.35;;;8.20;99.90;;;;;;4928323;29;20313;-75
2023/04/13 18:21:02;;;;;;;3.65;1.60;;;8.10;99.90;;;;;;4944593;29;20044;-75
2023/04/13 18:23:30;;;;;;;5.90;2.45;;;8.00;99.90;;;;;;4919977;29;20038;-75
2023/04/13 18:25:56;;;;;;;5.10;1.95;;;7.90;99.90;;;;;;4944407;29;20377;-75
2023/04/13 18:28:22;;;;;;;4.88;1.60;;;7.90;99.90;;;;;;4944551;29;20031;-75
2023/04/13 18:31:12;;;;;;;3.05;1.48;;;7.90;99.90;;;;;;4945458;29;20054;-76
2023/04/13 18:33:40;;;;;;;3.08;1.25;;;7.90;99.90;;;;;;4945283;29;20368;-75
2023/04/13 18:36:23;;;;;;;5.13;1.88;;;7.80;99.90;;;;;;4943593;29;20225;-75
2023/04/13 18:38:49;;;;;;;7.05;1.80;;;7.80;99.90;;;;;;4944143;29;20031;-75